sensor_id;sensor_type;location;lat;lon;timestamp;P1;durP1;ratioP1;P2;durP2;ratioP2
11962;SDS011;62678;52.130;5.584;2023-06-24T00:00:50;15.23;;;12.73;;
11962;SDS011;62678;52.130;5.584;2023-06-24T00:03:17;15.50;;;12.90;;
11962;SDS011;62678;52.130;5.584;2023-06-24T00:05:44;13.07;;;11.68;;
11962;SDS011;62678;52.130;5.584;2023-06-24T00:08:15;19.52;;;13.10;;
11962;SDS011;62678;52.130;5.584;2023-06-24T00:10:44;14.90;;;12.68;;
11962;SDS011;62678;52.130;5.584;2023-06-24T00:13:12;13.93;;;11.88;;
11962;SDS011;62678;52.130;5.584;2023-06-24T00:15:39;15.65;;;11.48;;
11962;SDS011;62678;52.130;5.584;2023-06-24T00:18:07;12.98;;;11.57;;
11962;SDS011;62678;52.130;5.584;2023-06-24T00:20:35;13.23;;;11.82;;
11962;SDS011;62678;52.130;5.584;2023-06-24T00:23:02;18.80;;;12.40;;
11962;SDS011;62678;52.130;5.584;2023-06-24T00:25:30;14.65;;;11.88;;
11962;SDS011;62678;52.130;5.584;2023-06-24T00:27:57;13.77;;;12.38;;
11962;SDS011;62678;52.130;5.584;2023-06-24T00:30:25;13.15;;;11.70;;
11962;SDS011;62678;52.130;5.584;2023-06-24T00:32:52;13.15;;;11.82;;
11962;SDS011;62678;52.130;5.584;2023-06-24T00:35:19;16.50;;;13.23;;
11962;SDS011;62678;52.130;5.584;2023-06-24T00:37:46;14.27;;;12.20;;
11962;SDS011;62678;52.130;5.584;2023-06-24T00:40:14;12.40;;;11.10;;
11962;SDS011;62678;52.130;5.584;2023-06-24T00:42:43;14.85;;;12.93;;
11962;SDS011;62678;52.130;5.584;2023-06-24T00:45:11;14.43;;;12.65;;
11962;SDS011;62678;52.130;5.584;2023-06-24T00:47:39;14.50;;;12.88;;
11962;SDS011;62678;52.130;5.584;2023-06-24T00:50:10;14.02;;;12.52;;
11962;SDS011;62678;52.130;5.584;2023-06-24T00:52:37;14.98;;;13.38;;
11962;SDS011;62678;52.130;5.584;2023-06-24T00:55:07;15.55;;;12.98;;
11962;SDS011;62678;52.130;5.584;2023-06-24T00:57:37;15.63;;;13.00;;
11962;SDS011;62678;52.130;5.584;2023-06-24T01:00:06;17.45;;;14.32;;
11962;SDS011;62678;52.130;5.584;2023-06-24T01:02:38;16.25;;;13.20;;
11962;SDS011;62678;52.130;5.584;2023-06-24T01:05:07;18.45;;;13.82;;
11962;SDS011;62678;52.130;5.584;2023-06-24T01:07:36;20.48;;;14.50;;
11962;SDS011;62678;52.130;5.584;2023-06-24T01:10:05;15.55;;;13.60;;
11962;SDS011;62678;52.130;5.584;2023-06-24T01:12:33;20.85;;;13.80;;
11962;SDS011;62678;52.130;5.584;2023-06-24T01:15:03;15.93;;;13.63;;
11962;SDS011;62678;52.130;5.584;2023-06-24T01:17:34;16.58;;;13.73;;
11962;SDS011;62678;52.130;5.584;2023-06-24T01:20:07;16.83;;;15.13;;
11962;SDS011;62678;52.130;5.584;2023-06-24T01:22:48;18.70;;;15.25;;
11962;SDS011;62678;52.130;5.584;2023-06-24T01:26:10;17.88;;;15.15;;
11962;SDS011;62678;52.130;5.584;2023-06-24T01:29:04;18.13;;;15.30;;
11962;SDS011;62678;52.130;5.584;2023-06-24T01:31:49;19.08;;;16.02;;
11962;SDS011;62678;52.130;5.584;2023-06-24T01:34:21;22.83;;;15.95;;
11962;SDS011;62678;52.130;5.584;2023-06-24T01:36:54;20.65;;;16.48;;
11962;SDS011;62678;52.130;5.584;2023-06-24T01:39:26;17.75;;;15.43;;
11962;SDS011;62678;52.130;5.584;2023-06-24T01:41:58;18.13;;;15.95;;
11962;SDS011;62678;52.130;5.584;2023-06-24T01:44:29;20.35;;;16.02;;
11962;SDS011;62678;52.130;5.584;2023-06-24T01:46:58;18.60;;;16.38;;
11962;SDS011;62678;52.130;5.584;2023-06-24T01:49:28;20.50;;;15.45;;
11962;SDS011;62678;52.130;5.584;2023-06-24T01:51:58;18.05;;;15.05;;
11962;SDS011;62678;52.130;5.584;2023-06-24T01:54:27;19.05;;;15.20;;
11962;SDS011;62678;52.130;5.584;2023-06-24T01:56:56;21.75;;;16.60;;
11962;SDS011;62678;52.130;5.584;2023-06-24T01:59:26;19.23;;;16.25;;
11962;SDS011;62678;52.130;5.584;2023-06-24T02:01:55;17.02;;;15.32;;
11962;SDS011;62678;52.130;5.584;2023-06-24T02:04:26;18.00;;;15.77;;
11962;SDS011;62678;52.130;5.584;2023-06-24T02:06:56;19.23;;;15.65;;
11962;SDS011;62678;52.130;5.584;2023-06-24T02:09:26;18.00;;;15.80;;
11962;SDS011;62678;52.130;5.584;2023-06-24T02:11:56;20.50;;;16.13;;
11962;SDS011;62678;52.130;5.584;2023-06-24T02:14:25;18.35;;;16.38;;
11962;SDS011;62678;52.130;5.584;2023-06-24T02:16:53;18.55;;;16.63;;
11962;SDS011;62678;52.130;5.584;2023-06-24T02:19:24;23.00;;;17.42;;
11962;SDS011;62678;52.130;5.584;2023-06-24T02:21:55;21.85;;;17.65;;
11962;SDS011;62678;52.130;5.584;2023-06-24T02:24:24;17.52;;;15.63;;
11962;SDS011;62678;52.130;5.584;2023-06-24T02:26:52;22.40;;;17.85;;
11962;SDS011;62678;52.130;5.584;2023-06-24T02:29:20;20.98;;;17.15;;
11962;SDS011;62678;52.130;5.584;2023-06-24T02:31:48;22.23;;;17.38;;
11962;SDS011;62678;52.130;5.584;2023-06-24T02:34:16;19.52;;;17.42;;
11962;SDS011;62678;52.130;5.584;2023-06-24T02:36:44;21.80;;;18.08;;
11962;SDS011;62678;52.130;5.584;2023-06-24T02:39:11;19.52;;;17.05;;
11962;SDS011;62678;52.130;5.584;2023-06-24T02:41:38;23.02;;;17.90;;
11962;SDS011;62678;52.130;5.584;2023-06-24T02:44:05;22.63;;;18.00;;
11962;SDS011;62678;52.130;5.584;2023-06-24T02:46:32;23.63;;;18.60;;
11962;SDS011;62678;52.130;5.584;2023-06-24T02:49:01;23.15;;;18.88;;
11962;SDS011;62678;52.130;5.584;2023-06-24T02:51:30;22.75;;;18.38;;
11962;SDS011;62678;52.130;5.584;2023-06-24T02:53:58;22.52;;;18.73;;
11962;SDS011;62678;52.130;5.584;2023-06-24T02:56:28;22.42;;;18.27;;
11962;SDS011;62678;52.130;5.584;2023-06-24T02:58:55;24.00;;;18.83;;
11962;SDS011;62678;52.130;5.584;2023-06-24T03:01:22;20.75;;;18.55;;
11962;SDS011;62678;52.130;5.584;2023-06-24T03:03:51;25.20;;;19.17;;
11962;SDS011;62678;52.130;5.584;2023-06-24T03:06:20;22.58;;;18.40;;
11962;SDS011;62678;52.130;5.584;2023-06-24T03:08:48;25.90;;;19.05;;
11962;SDS011;62678;52.130;5.584;2023-06-24T03:11:17;22.13;;;18.83;;
11962;SDS011;62678;52.130;5.584;2023-06-24T03:13:44;23.60;;;19.40;;
11962;SDS011;62678;52.130;5.584;2023-06-24T03:16:11;26.50;;;20.00;;
11962;SDS011;62678;52.130;5.584;2023-06-24T03:18:40;25.33;;;20.30;;
11962;SDS011;62678;52.130;5.584;2023-06-24T03:21:07;25.30;;;20.00;;
11962;SDS011;62678;52.130;5.584;2023-06-24T03:23:34;26.65;;;20.08;;
11962;SDS011;62678;52.130;5.584;2023-06-24T03:26:01;25.40;;;18.67;;
11962;SDS011;62678;52.130;5.584;2023-06-24T03:28:30;25.95;;;20.67;;
11962;SDS011;62678;52.130;5.584;2023-06-24T03:30:57;22.98;;;19.65;;
11962;SDS011;62678;52.130;5.584;2023-06-24T03:33:25;26.65;;;20.30;;
11962;SDS011;62678;52.130;5.584;2023-06-24T03:35:52;23.65;;;19.90;;
11962;SDS011;62678;52.130;5.584;2023-06-24T03:38:20;26.50;;;20.13;;
11962;SDS011;62678;52.130;5.584;2023-06-24T03:40:47;23.40;;;19.75;;
11962;SDS011;62678;52.130;5.584;2023-06-24T03:43:14;23.77;;;19.92;;
11962;SDS011;62678;52.130;5.584;2023-06-24T03:45:42;25.00;;;20.00;;
11962;SDS011;62678;52.130;5.584;2023-06-24T03:48:09;28.13;;;20.35;;
11962;SDS011;62678;52.130;5.584;2023-06-24T03:50:36;27.77;;;22.05;;
11962;SDS011;62678;52.130;5.584;2023-06-24T03:53:03;27.27;;;20.58;;
11962;SDS011;62678;52.130;5.584;2023-06-24T03:55:31;25.15;;;20.38;;
11962;SDS011;62678;52.130;5.584;2023-06-24T03:57:57;26.08;;;20.73;;
11962;SDS011;62678;52.130;5.584;2023-06-24T04:00:24;24.58;;;20.80;;
11962;SDS011;62678;52.130;5.584;2023-06-24T04:02:53;28.05;;;21.67;;
11962;SDS011;62678;52.130;5.584;2023-06-24T04:05:20;25.63;;;20.60;;
11962;SDS011;62678;52.130;5.584;2023-06-24T04:07:47;25.52;;;20.00;;
11962;SDS011;62678;52.130;5.584;2023-06-24T04:10:16;26.20;;;21.10;;
11962;SDS011;62678;52.130;5.584;2023-06-24T04:12:43;27.23;;;20.88;;
11962;SDS011;62678;52.130;5.584;2023-06-24T04:15:10;28.95;;;21.92;;
11962;SDS011;62678;52.130;5.584;2023-06-24T04:17:38;28.60;;;20.17;;
11962;SDS011;62678;52.130;5.584;2023-06-24T04:20:07;26.05;;;20.73;;
11962;SDS011;62678;52.130;5.584;2023-06-24T04:22:35;28.42;;;21.00;;
11962;SDS011;62678;52.130;5.584;2023-06-24T04:25:03;31.60;;;22.65;;
11962;SDS011;62678;52.130;5.584;2023-06-24T04:27:31;28.48;;;20.67;;
11962;SDS011;62678;52.130;5.584;2023-06-24T04:29:57;28.08;;;21.42;;
11962;SDS011;62678;52.130;5.584;2023-06-24T04:32:24;26.83;;;20.88;;
11962;SDS011;62678;52.130;5.584;2023-06-24T04:34:51;29.77;;;21.05;;
11962;SDS011;62678;52.130;5.584;2023-06-24T04:37:20;26.63;;;20.27;;
11962;SDS011;62678;52.130;5.584;2023-06-24T04:39:47;28.30;;;21.30;;
11962;SDS011;62678;52.130;5.584;2023-06-24T04:42:15;33.15;;;20.77;;
11962;SDS011;62678;52.130;5.584;2023-06-24T04:44:42;24.73;;;19.05;;
11962;SDS011;62678;52.130;5.584;2023-06-24T04:47:08;24.67;;;18.35;;
11962;SDS011;62678;52.130;5.584;2023-06-24T04:49:35;22.25;;;18.83;;
11962;SDS011;62678;52.130;5.584;2023-06-24T04:52:03;23.02;;;18.35;;
11962;SDS011;62678;52.130;5.584;2023-06-24T04:54:33;20.13;;;16.80;;
11962;SDS011;62678;52.130;5.584;2023-06-24T04:57:00;22.25;;;16.67;;
11962;SDS011;62678;52.130;5.584;2023-06-24T04:59:27;26.25;;;15.85;;
11962;SDS011;62678;52.130;5.584;2023-06-24T05:01:54;22.77;;;14.93;;
11962;SDS011;62678;52.130;5.584;2023-06-24T05:04:21;21.35;;;15.40;;
11962;SDS011;62678;52.130;5.584;2023-06-24T05:06:48;21.15;;;14.77;;
11962;SDS011;62678;52.130;5.584;2023-06-24T05:09:15;18.92;;;14.82;;
11962;SDS011;62678;52.130;5.584;2023-06-24T05:11:43;22.65;;;15.30;;
11962;SDS011;62678;52.130;5.584;2023-06-24T05:14:10;18.42;;;13.85;;
11962;SDS011;62678;52.130;5.584;2023-06-24T05:16:37;24.10;;;14.25;;
11962;SDS011;62678;52.130;5.584;2023-06-24T05:19:04;17.40;;;12.85;;
11962;SDS011;62678;52.130;5.584;2023-06-24T05:21:31;14.30;;;11.35;;
11962;SDS011;62678;52.130;5.584;2023-06-24T05:23:58;15.55;;;10.82;;
11962;SDS011;62678;52.130;5.584;2023-06-24T05:26:25;11.85;;;10.45;;
11962;SDS011;62678;52.130;5.584;2023-06-24T05:28:53;13.90;;;10.18;;
11962;SDS011;62678;52.130;5.584;2023-06-24T05:31:20;11.75;;;8.98;;
11962;SDS011;62678;52.130;5.584;2023-06-24T05:33:47;10.50;;;8.57;;
11962;SDS011;62678;52.130;5.584;2023-06-24T05:36:14;12.38;;;8.90;;
11962;SDS011;62678;52.130;5.584;2023-06-24T05:38:42;12.30;;;8.02;;
11962;SDS011;62678;52.130;5.584;2023-06-24T05:41:08;13.70;;;8.88;;
11962;SDS011;62678;52.130;5.584;2023-06-24T05:43:35;12.25;;;9.00;;
11962;SDS011;62678;52.130;5.584;2023-06-24T05:46:06;12.23;;;9.30;;
11962;SDS011;62678;52.130;5.584;2023-06-24T05:48:33;11.05;;;8.07;;
11962;SDS011;62678;52.130;5.584;2023-06-24T05:51:00;9.35;;;7.43;;
11962;SDS011;62678;52.130;5.584;2023-06-24T05:53:27;10.18;;;8.00;;
11962;SDS011;62678;52.130;5.584;2023-06-24T05:55:54;10.95;;;8.07;;
11962;SDS011;62678;52.130;5.584;2023-06-24T05:58:21;10.65;;;7.10;;
11962;SDS011;62678;52.130;5.584;2023-06-24T06:00:48;11.57;;;8.07;;
11962;SDS011;62678;52.130;5.584;2023-06-24T06:03:16;9.80;;;7.97;;
11962;SDS011;62678;52.130;5.584;2023-06-24T06:05:43;12.25;;;8.05;;
11962;SDS011;62678;52.130;5.584;2023-06-24T06:08:10;11.43;;;7.43;;
11962;SDS011;62678;52.130;5.584;2023-06-24T06:10:42;9.70;;;7.85;;
11962;SDS011;62678;52.130;5.584;2023-06-24T06:13:09;11.70;;;8.18;;
11962;SDS011;62678;52.130;5.584;2023-06-24T06:15:36;14.48;;;8.05;;
11962;SDS011;62678;52.130;5.584;2023-06-24T06:18:03;14.18;;;7.10;;
11962;SDS011;62678;52.130;5.584;2023-06-24T06:20:34;9.90;;;6.88;;
11962;SDS011;62678;52.130;5.584;2023-06-24T06:23:01;11.52;;;7.47;;
11962;SDS011;62678;52.130;5.584;2023-06-24T06:25:28;11.90;;;6.70;;
11962;SDS011;62678;52.130;5.584;2023-06-24T06:27:55;8.88;;;7.07;;
11962;SDS011;62678;52.130;5.584;2023-06-24T06:30:23;10.80;;;7.15;;
11962;SDS011;62678;52.130;5.584;2023-06-24T06:32:50;11.35;;;7.65;;
11962;SDS011;62678;52.130;5.584;2023-06-24T06:35:17;12.18;;;7.18;;
11962;SDS011;62678;52.130;5.584;2023-06-24T06:37:45;8.80;;;6.95;;
11962;SDS011;62678;52.130;5.584;2023-06-24T06:40:17;9.77;;;7.55;;
11962;SDS011;62678;52.130;5.584;2023-06-24T06:42:44;11.80;;;7.90;;
11962;SDS011;62678;52.130;5.584;2023-06-24T06:45:11;7.70;;;6.78;;
11962;SDS011;62678;52.130;5.584;2023-06-24T06:47:38;7.72;;;6.30;;
11962;SDS011;62678;52.130;5.584;2023-06-24T06:50:05;15.77;;;7.00;;
11962;SDS011;62678;52.130;5.584;2023-06-24T06:52:34;8.00;;;6.20;;
11962;SDS011;62678;52.130;5.584;2023-06-24T06:55:02;10.57;;;6.38;;
11962;SDS011;62678;52.130;5.584;2023-06-24T06:57:30;10.15;;;6.68;;
11962;SDS011;62678;52.130;5.584;2023-06-24T06:59:57;8.05;;;6.30;;
11962;SDS011;62678;52.130;5.584;2023-06-24T07:02:24;9.10;;;6.30;;
11962;SDS011;62678;52.130;5.584;2023-06-24T07:04:51;7.50;;;6.25;;
11962;SDS011;62678;52.130;5.584;2023-06-24T07:07:18;11.05;;;6.28;;
11962;SDS011;62678;52.130;5.584;2023-06-24T07:09:45;8.07;;;6.75;;
11962;SDS011;62678;52.130;5.584;2023-06-24T07:12:14;10.98;;;7.25;;
11962;SDS011;62678;52.130;5.584;2023-06-24T07:14:41;9.82;;;6.10;;
11962;SDS011;62678;52.130;5.584;2023-06-24T07:17:08;7.53;;;6.50;;
11962;SDS011;62678;52.130;5.584;2023-06-24T07:19:35;8.93;;;6.18;;
11962;SDS011;62678;52.130;5.584;2023-06-24T07:22:02;7.75;;;6.53;;
11962;SDS011;62678;52.130;5.584;2023-06-24T07:24:29;7.85;;;6.60;;
11962;SDS011;62678;52.130;5.584;2023-06-24T07:26:56;9.73;;;6.80;;
11962;SDS011;62678;52.130;5.584;2023-06-24T07:29:25;10.60;;;6.65;;
11962;SDS011;62678;52.130;5.584;2023-06-24T07:31:52;7.43;;;5.95;;
11962;SDS011;62678;52.130;5.584;2023-06-24T07:34:19;6.68;;;5.75;;
11962;SDS011;62678;52.130;5.584;2023-06-24T07:36:46;7.45;;;5.70;;
11962;SDS011;62678;52.130;5.584;2023-06-24T07:39:13;7.85;;;6.00;;
11962;SDS011;62678;52.130;5.584;2023-06-24T07:41:40;7.03;;;5.63;;
11962;SDS011;62678;52.130;5.584;2023-06-24T07:44:07;7.75;;;5.22;;
11962;SDS011;62678;52.130;5.584;2023-06-24T07:46:36;6.95;;;4.85;;
11962;SDS011;62678;52.130;5.584;2023-06-24T07:49:03;7.85;;;4.80;;
11962;SDS011;62678;52.130;5.584;2023-06-24T07:51:30;8.63;;;5.57;;
11962;SDS011;62678;52.130;5.584;2023-06-24T07:53:58;7.80;;;4.90;;
11962;SDS011;62678;52.130;5.584;2023-06-24T07:56:25;6.22;;;5.20;;
11962;SDS011;62678;52.130;5.584;2023-06-24T07:58:52;5.30;;;3.97;;
11962;SDS011;62678;52.130;5.584;2023-06-24T08:01:19;5.25;;;3.83;;
11962;SDS011;62678;52.130;5.584;2023-06-24T08:03:47;6.97;;;4.20;;
11962;SDS011;62678;52.130;5.584;2023-06-24T08:06:14;5.78;;;3.92;;
11962;SDS011;62678;52.130;5.584;2023-06-24T08:08:41;5.40;;;3.50;;
11962;SDS011;62678;52.130;5.584;2023-06-24T08:11:11;8.00;;;3.90;;
11962;SDS011;62678;52.130;5.584;2023-06-24T08:13:38;6.97;;;6.20;;
11962;SDS011;62678;52.130;5.584;2023-06-24T08:16:05;9.05;;;5.70;;
11962;SDS011;62678;52.130;5.584;2023-06-24T08:18:32;6.30;;;4.90;;
11962;SDS011;62678;52.130;5.584;2023-06-24T08:21:00;6.90;;;4.30;;
11962;SDS011;62678;52.130;5.584;2023-06-24T08:23:27;4.97;;;4.32;;
11962;SDS011;62678;52.130;5.584;2023-06-24T08:25:54;7.38;;;4.80;;
11962;SDS011;62678;52.130;5.584;2023-06-24T08:28:21;7.20;;;4.47;;
11962;SDS011;62678;52.130;5.584;2023-06-24T08:30:48;5.45;;;3.90;;
11962;SDS011;62678;52.130;5.584;2023-06-24T08:33:15;7.65;;;3.50;;
11962;SDS011;62678;52.130;5.584;2023-06-24T08:35:42;5.25;;;4.20;;
11962;SDS011;62678;52.130;5.584;2023-06-24T08:38:11;6.22;;;4.28;;
11962;SDS011;62678;52.130;5.584;2023-06-24T08:40:38;5.40;;;4.10;;
11962;SDS011;62678;52.130;5.584;2023-06-24T08:43:06;4.50;;;3.47;;
11962;SDS011;62678;52.130;5.584;2023-06-24T08:45:33;5.07;;;3.83;;
11962;SDS011;62678;52.130;5.584;2023-06-24T08:48:00;8.60;;;4.03;;
11962;SDS011;62678;52.130;5.584;2023-06-24T08:50:31;7.00;;;3.75;;
11962;SDS011;62678;52.130;5.584;2023-06-24T08:53:02;5.50;;;3.25;;
11962;SDS011;62678;52.130;5.584;2023-06-24T08:55:36;7.28;;;3.72;;
11962;SDS011;62678;52.130;5.584;2023-06-24T08:58:06;5.35;;;3.40;;
11962;SDS011;62678;52.130;5.584;2023-06-24T09:00:33;10.30;;;4.40;;
11962;SDS011;62678;52.130;5.584;2023-06-24T09:03:01;7.13;;;4.05;;
11962;SDS011;62678;52.130;5.584;2023-06-24T09:05:28;4.07;;;3.55;;
11962;SDS011;62678;52.130;5.584;2023-06-24T09:07:55;7.18;;;3.95;;
11962;SDS011;62678;52.130;5.584;2023-06-24T09:10:29;5.25;;;4.22;;
11962;SDS011;62678;52.130;5.584;2023-06-24T09:12:59;5.20;;;4.28;;
11962;SDS011;62678;52.130;5.584;2023-06-24T09:15:29;4.78;;;3.72;;
11962;SDS011;62678;52.130;5.584;2023-06-24T09:17:57;6.80;;;4.60;;
11962;SDS011;62678;52.130;5.584;2023-06-24T09:20:25;4.63;;;3.60;;
11962;SDS011;62678;52.130;5.584;2023-06-24T09:22:57;4.30;;;3.90;;
11962;SDS011;62678;52.130;5.584;2023-06-24T09:25:25;4.63;;;4.18;;
11962;SDS011;62678;52.130;5.584;2023-06-24T09:27:51;4.65;;;3.97;;
11962;SDS011;62678;52.130;5.584;2023-06-24T09:30:22;6.20;;;4.53;;
11962;SDS011;62678;52.130;5.584;2023-06-24T09:32:50;6.80;;;4.55;;
11962;SDS011;62678;52.130;5.584;2023-06-24T09:35:18;6.63;;;4.55;;
11962;SDS011;62678;52.130;5.584;2023-06-24T09:37:50;6.00;;;4.47;;
11962;SDS011;62678;52.130;5.584;2023-06-24T09:40:17;6.78;;;4.97;;
11962;SDS011;62678;52.130;5.584;2023-06-24T09:42:48;5.28;;;4.63;;
11962;SDS011;62678;52.130;5.584;2023-06-24T09:45:20;7.07;;;5.05;;
11962;SDS011;62678;52.130;5.584;2023-06-24T09:47:50;7.68;;;6.07;;
11962;SDS011;62678;52.130;5.584;2023-06-24T09:50:17;6.78;;;5.40;;
11962;SDS011;62678;52.130;5.584;2023-06-24T09:52:44;6.15;;;5.13;;
11962;SDS011;62678;52.130;5.584;2023-06-24T09:55:16;6.32;;;5.47;;
11962;SDS011;62678;52.130;5.584;2023-06-24T09:57:44;8.07;;;5.20;;
11962;SDS011;62678;52.130;5.584;2023-06-24T10:00:12;7.00;;;5.15;;
11962;SDS011;62678;52.130;5.584;2023-06-24T10:02:42;6.35;;;5.18;;
11962;SDS011;62678;52.130;5.584;2023-06-24T10:05:11;6.50;;;5.55;;
11962;SDS011;62678;52.130;5.584;2023-06-24T10:07:38;9.43;;;5.43;;
11962;SDS011;62678;52.130;5.584;2023-06-24T10:10:07;7.97;;;6.00;;
11962;SDS011;62678;52.130;5.584;2023-06-24T10:12:34;6.03;;;5.05;;
11962;SDS011;62678;52.130;5.584;2023-06-24T10:15:02;8.50;;;6.18;;
11962;SDS011;62678;52.130;5.584;2023-06-24T10:17:30;7.97;;;6.22;;
11962;SDS011;62678;52.130;5.584;2023-06-24T10:19:59;8.05;;;6.30;;
11962;SDS011;62678;52.130;5.584;2023-06-24T10:22:31;7.65;;;5.80;;
11962;SDS011;62678;52.130;5.584;2023-06-24T10:24:59;8.07;;;5.95;;
11962;SDS011;62678;52.130;5.584;2023-06-24T10:27:27;10.98;;;7.03;;
11962;SDS011;62678;52.130;5.584;2023-06-24T10:30:01;8.77;;;7.28;;
11962;SDS011;62678;52.130;5.584;2023-06-24T10:32:38;9.32;;;6.63;;
11962;SDS011;62678;52.130;5.584;2023-06-24T10:35:09;7.53;;;6.15;;
11962;SDS011;62678;52.130;5.584;2023-06-24T10:37:56;8.25;;;6.65;;
11962;SDS011;62678;52.130;5.584;2023-06-24T10:40:36;7.82;;;6.57;;
11962;SDS011;62678;52.130;5.584;2023-06-24T10:43:22;8.25;;;6.65;;
11962;SDS011;62678;52.130;5.584;2023-06-24T10:45:54;7.97;;;6.95;;
11962;SDS011;62678;52.130;5.584;2023-06-24T10:48:22;10.50;;;7.28;;
11962;SDS011;62678;52.130;5.584;2023-06-24T10:50:50;10.07;;;7.18;;
11962;SDS011;62678;52.130;5.584;2023-06-24T10:53:17;8.02;;;5.97;;
11962;SDS011;62678;52.130;5.584;2023-06-24T10:55:44;6.95;;;5.00;;
11962;SDS011;62678;52.130;5.584;2023-06-24T10:58:12;8.77;;;5.90;;
11962;SDS011;62678;52.130;5.584;2023-06-24T11:00:40;10.63;;;7.28;;
11962;SDS011;62678;52.130;5.584;2023-06-24T11:03:09;10.85;;;8.00;;
11962;SDS011;62678;52.130;5.584;2023-06-24T11:05:39;8.48;;;6.45;;
11962;SDS011;62678;52.130;5.584;2023-06-24T11:08:08;8.15;;;6.15;;
11962;SDS011;62678;52.130;5.584;2023-06-24T11:10:42;7.90;;;6.10;;
11962;SDS011;62678;52.130;5.584;2023-06-24T11:13:10;7.93;;;5.13;;
11962;SDS011;62678;52.130;5.584;2023-06-24T11:15:38;5.97;;;5.38;;
11962;SDS011;62678;52.130;5.584;2023-06-24T11:18:07;7.63;;;5.72;;
11962;SDS011;62678;52.130;5.584;2023-06-24T11:20:35;7.78;;;6.28;;
11962;SDS011;62678;52.130;5.584;2023-06-24T11:23:06;8.70;;;5.93;;
11962;SDS011;62678;52.130;5.584;2023-06-24T11:25:39;6.90;;;5.47;;
11962;SDS011;62678;52.130;5.584;2023-06-24T11:28:13;7.35;;;5.93;;
11962;SDS011;62678;52.130;5.584;2023-06-24T11:30:41;5.78;;;5.18;;
11962;SDS011;62678;52.130;5.584;2023-06-24T11:33:08;9.57;;;5.30;;
11962;SDS011;62678;52.130;5.584;2023-06-24T11:35:35;6.45;;;4.93;;
11962;SDS011;62678;52.130;5.584;2023-06-24T11:38:02;8.13;;;5.75;;
11962;SDS011;62678;52.130;5.584;2023-06-24T11:40:30;7.45;;;6.13;;
11962;SDS011;62678;52.130;5.584;2023-06-24T11:43:01;17.80;;;6.78;;
11962;SDS011;62678;52.130;5.584;2023-06-24T11:45:28;8.52;;;6.22;;
11962;SDS011;62678;52.130;5.584;2023-06-24T11:48:01;8.35;;;6.65;;
11962;SDS011;62678;52.130;5.584;2023-06-24T11:50:30;6.85;;;5.60;;
11962;SDS011;62678;52.130;5.584;2023-06-24T11:52:57;8.68;;;6.50;;
11962;SDS011;62678;52.130;5.584;2023-06-24T11:55:25;8.82;;;6.47;;
11962;SDS011;62678;52.130;5.584;2023-06-24T11:57:53;6.72;;;5.13;;
11962;SDS011;62678;52.130;5.584;2023-06-24T12:00:23;5.57;;;5.07;;
11962;SDS011;62678;52.130;5.584;2023-06-24T12:02:55;7.20;;;5.18;;
11962;SDS011;62678;52.130;5.584;2023-06-24T12:05:23;6.45;;;5.20;;
11962;SDS011;62678;52.130;5.584;2023-06-24T12:07:57;7.32;;;5.22;;
11962;SDS011;62678;52.130;5.584;2023-06-24T12:10:25;5.28;;;4.78;;
11962;SDS011;62678;52.130;5.584;2023-06-24T12:12:53;5.93;;;5.20;;
11962;SDS011;62678;52.130;5.584;2023-06-24T12:15:24;5.32;;;4.63;;
11962;SDS011;62678;52.130;5.584;2023-06-24T12:17:52;7.65;;;4.78;;
11962;SDS011;62678;52.130;5.584;2023-06-24T12:20:19;6.32;;;4.60;;
11962;SDS011;62678;52.130;5.584;2023-06-24T12:22:46;4.38;;;3.97;;
11962;SDS011;62678;52.130;5.584;2023-06-24T12:25:14;5.43;;;4.93;;
11962;SDS011;62678;52.130;5.584;2023-06-24T12:27:42;7.53;;;6.07;;
11962;SDS011;62678;52.130;5.584;2023-06-24T12:30:13;7.95;;;6.25;;
11962;SDS011;62678;52.130;5.584;2023-06-24T12:32:43;7.82;;;7.00;;
11962;SDS011;62678;52.130;5.584;2023-06-24T12:35:10;7.35;;;5.95;;
11962;SDS011;62678;52.130;5.584;2023-06-24T12:37:37;10.05;;;6.90;;
11962;SDS011;62678;52.130;5.584;2023-06-24T12:40:04;7.43;;;6.22;;
11962;SDS011;62678;52.130;5.584;2023-06-24T12:42:32;10.30;;;6.63;;
11962;SDS011;62678;52.130;5.584;2023-06-24T12:44:59;7.43;;;5.88;;
11962;SDS011;62678;52.130;5.584;2023-06-24T12:47:27;8.55;;;6.47;;
11962;SDS011;62678;52.130;5.584;2023-06-24T12:49:55;7.50;;;6.18;;
11962;SDS011;62678;52.130;5.584;2023-06-24T12:52:22;8.45;;;5.90;;
11962;SDS011;62678;52.130;5.584;2023-06-24T12:54:49;10.15;;;6.97;;
11962;SDS011;62678;52.130;5.584;2023-06-24T12:57:16;7.93;;;6.50;;
11962;SDS011;62678;52.130;5.584;2023-06-24T12:59:43;9.35;;;7.15;;
11962;SDS011;62678;52.130;5.584;2023-06-24T13:02:10;10.52;;;6.15;;
11962;SDS011;62678;52.130;5.584;2023-06-24T13:04:37;9.57;;;7.35;;
11962;SDS011;62678;52.130;5.584;2023-06-24T13:07:06;9.48;;;7.25;;
11962;SDS011;62678;52.130;5.584;2023-06-24T13:09:34;7.75;;;6.93;;
11962;SDS011;62678;52.130;5.584;2023-06-24T13:12:01;6.80;;;6.03;;
11962;SDS011;62678;52.130;5.584;2023-06-24T13:14:29;9.35;;;7.10;;
11962;SDS011;62678;52.130;5.584;2023-06-24T13:16:56;9.38;;;6.38;;
11962;SDS011;62678;52.130;5.584;2023-06-24T13:19:23;8.93;;;6.65;;
11962;SDS011;62678;52.130;5.584;2023-06-24T13:21:50;6.50;;;5.90;;
11962;SDS011;62678;52.130;5.584;2023-06-24T13:24:18;8.68;;;6.95;;
11962;SDS011;62678;52.130;5.584;2023-06-24T13:26:45;7.68;;;6.45;;
11962;SDS011;62678;52.130;5.584;2023-06-24T13:29:12;8.38;;;5.70;;
11962;SDS011;62678;52.130;5.584;2023-06-24T13:31:39;9.15;;;6.70;;
11962;SDS011;62678;52.130;5.584;2023-06-24T13:34:06;9.63;;;6.10;;
11962;SDS011;62678;52.130;5.584;2023-06-24T13:36:34;7.13;;;5.35;;
11962;SDS011;62678;52.130;5.584;2023-06-24T13:39:03;6.55;;;5.95;;
11962;SDS011;62678;52.130;5.584;2023-06-24T13:41:32;7.75;;;6.15;;
11962;SDS011;62678;52.130;5.584;2023-06-24T13:43:59;10.68;;;7.50;;
11962;SDS011;62678;52.130;5.584;2023-06-24T13:46:27;7.72;;;6.18;;
11962;SDS011;62678;52.130;5.584;2023-06-24T13:48:55;9.13;;;6.25;;
11962;SDS011;62678;52.130;5.584;2023-06-24T13:51:22;6.32;;;5.63;;
11962;SDS011;62678;52.130;5.584;2023-06-24T13:53:49;6.85;;;5.22;;
11962;SDS011;62678;52.130;5.584;2023-06-24T13:56:18;7.63;;;5.30;;
11962;SDS011;62678;52.130;5.584;2023-06-24T13:58:47;7.35;;;5.18;;
11962;SDS011;62678;52.130;5.584;2023-06-24T14:01:14;6.63;;;5.93;;
11962;SDS011;62678;52.130;5.584;2023-06-24T14:03:44;7.38;;;6.00;;
11962;SDS011;62678;52.130;5.584;2023-06-24T14:06:13;9.85;;;6.13;;
11962;SDS011;62678;52.130;5.584;2023-06-24T14:08:41;7.35;;;6.20;;
11962;SDS011;62678;52.130;5.584;2023-06-24T14:11:09;8.25;;;6.32;;
11962;SDS011;62678;52.130;5.584;2023-06-24T14:13:36;5.75;;;5.07;;
11962;SDS011;62678;52.130;5.584;2023-06-24T14:16:05;7.53;;;5.68;;
11962;SDS011;62678;52.130;5.584;2023-06-24T14:18:32;6.38;;;5.50;;
11962;SDS011;62678;52.130;5.584;2023-06-24T14:21:00;7.28;;;6.28;;
11962;SDS011;62678;52.130;5.584;2023-06-24T14:23:27;7.60;;;6.07;;
11962;SDS011;62678;52.130;5.584;2023-06-24T14:25:54;6.20;;;5.15;;
11962;SDS011;62678;52.130;5.584;2023-06-24T14:28:22;7.00;;;5.53;;
11962;SDS011;62678;52.130;5.584;2023-06-24T14:30:49;6.82;;;5.45;;
11962;SDS011;62678;52.130;5.584;2023-06-24T14:33:17;6.75;;;4.90;;
11962;SDS011;62678;52.130;5.584;2023-06-24T14:35:44;6.55;;;5.30;;
11962;SDS011;62678;52.130;5.584;2023-06-24T14:38:11;6.35;;;5.55;;
11962;SDS011;62678;52.130;5.584;2023-06-24T14:40:38;7.35;;;4.80;;
11962;SDS011;62678;52.130;5.584;2023-06-24T14:43:05;9.32;;;6.90;;